Michigantown, IN (46057)

11:44 AM EST on December 27, 2014 (GMT -0500)
Beard, IN | Change Station
CLOSE
Current Station
Personal Weather Station
Location: Frankfort, IN
Elevation: 857 ft
Nearby Weather Stations

Elev 857 ft 40.36 °N, 86.45 °W | Updated 3 seconds ago

Overcast
Overcast
45.7 °F
Feels Like 41 °F
N
9.2
Wind Variable Wind from SSW
Gusts 18.3 mph

Today
High -- | Low -- °F
--% Chance of Precip.
Yesterday
High -- | Low -- °F
Precip. -- in
8:07 AM 5:26 PM
Waxing Crescent, 38% visible
Pressure 30.11 in
Visibility 1.5 miles
Clouds Overcast 300 ft
Windchill 41 °F
Dew Point 43 °F
Humidity 91%
Rainfall 0.00 in
Snow Depth Not available.
UV 1 out of 12
Pollen .10 out of 12
Air Quality Not available.
Flu Activity Not available.
METAR KTYQ 271635Z AUTO 20010KT 1 1/2SM -RA OVC003 07/06 A3011 RMK AO2 T00700055

More Conditions Fewer Conditions

Pressure 30.11 in
Visibility 1.5 miles
Clouds Overcast 300 ft
Windchill 41 °F
Dew Point 43 °F
Humidity 91%
Rainfall 0.00 in
Snow Depth Not available.
UV 1 out of 12
Pollen .10 out of 12
Air Quality Not available.
Flu Activity Not available.
METAR KTYQ 271635Z AUTO 20010KT 1 1/2SM -RA OVC003 07/06 A3011 RMK AO2 T00700055

More Conditions Fewer Conditions

10-Day Weather Forecast

Almanac

Astronomy

Dec. 27, 2014 Rise Set
Actual Time
Civil Twilight
Nautical Twilight
Astronomical Twilight
Moon
Length of Visible Light
Length of Day
Tomorrow will be .
, % of the Moon is Illuminated

Today's Extremes

State Highs State Lows

Community

WunderPhotos

Upload Photos

1,780,958 photos uploaded!

WunderBlogs® & News

Nearby

Air Quality

  Air Quality AQ Index Pollutant
Not available.

Snow Depth

Station Depth Elevation

Earthquake Activity

City Distance Mag. Time & Date
Minimum magnitude displayed is 2.5.

Coastal Water Temperatures

Place Temperature

Nearby Weather Stations